sensor_id;sensor_type;location;lat;lon;timestamp;P1;durP1;ratioP1;P2;durP2;ratioP2
12476;SDS011;6303;51.504;6.300;2023-03-14T00:00:13;2.47;;;2.03;;
12476;SDS011;6303;51.504;6.300;2023-03-14T00:02:41;2.85;;;1.98;;
12476;SDS011;6303;51.504;6.300;2023-03-14T00:05:10;3.20;;;1.80;;
12476;SDS011;6303;51.504;6.300;2023-03-14T00:07:37;3.67;;;2.50;;
12476;SDS011;6303;51.504;6.300;2023-03-14T00:10:06;3.78;;;2.20;;
12476;SDS011;6303;51.504;6.300;2023-03-14T00:12:35;2.97;;;2.00;;
12476;SDS011;6303;51.504;6.300;2023-03-14T00:15:03;2.55;;;2.10;;
12476;SDS011;6303;51.504;6.300;2023-03-14T00:17:32;2.15;;;1.95;;
12476;SDS011;6303;51.504;6.300;2023-03-14T00:20:00;2.97;;;1.88;;
12476;SDS011;6303;51.504;6.300;2023-03-14T00:22:34;2.63;;;1.90;;
12476;SDS011;6303;51.504;6.300;2023-03-14T00:25:02;2.58;;;2.10;;
12476;SDS011;6303;51.504;6.300;2023-03-14T00:27:30;3.20;;;1.95;;
12476;SDS011;6303;51.504;6.300;2023-03-14T00:29:58;2.90;;;1.85;;
12476;SDS011;6303;51.504;6.300;2023-03-14T00:32:25;2.58;;;1.88;;
12476;SDS011;6303;51.504;6.300;2023-03-14T00:34:52;2.40;;;1.90;;
12476;SDS011;6303;51.504;6.300;2023-03-14T00:37:19;3.38;;;2.40;;
12476;SDS011;6303;51.504;6.300;2023-03-14T00:39:48;2.00;;;1.80;;
12476;SDS011;6303;51.504;6.300;2023-03-14T00:42:15;2.13;;;1.90;;
12476;SDS011;6303;51.504;6.300;2023-03-14T00:44:42;2.50;;;1.83;;
12476;SDS011;6303;51.504;6.300;2023-03-14T00:47:08;2.80;;;1.92;;
12476;SDS011;6303;51.504;6.300;2023-03-14T00:49:36;2.55;;;1.70;;
12476;SDS011;6303;51.504;6.300;2023-03-14T00:52:03;3.35;;;1.90;;
12476;SDS011;6303;51.504;6.300;2023-03-14T00:54:30;2.50;;;1.70;;
12476;SDS011;6303;51.504;6.300;2023-03-14T00:56:58;2.85;;;1.80;;
12476;SDS011;6303;51.504;6.300;2023-03-14T00:59:26;2.65;;;1.60;;
12476;SDS011;6303;51.504;6.300;2023-03-14T01:01:53;4.20;;;1.80;;
12476;SDS011;6303;51.504;6.300;2023-03-14T01:04:20;2.80;;;1.50;;
12476;SDS011;6303;51.504;6.300;2023-03-14T01:06:47;1.88;;;1.65;;
12476;SDS011;6303;51.504;6.300;2023-03-14T01:09:14;5.10;;;1.70;;
12476;SDS011;6303;51.504;6.300;2023-03-14T01:11:43;2.70;;;1.70;;
12476;SDS011;6303;51.504;6.300;2023-03-14T01:14:13;1.75;;;1.60;;
12476;SDS011;6303;51.504;6.300;2023-03-14T01:16:40;2.30;;;1.60;;
12476;SDS011;6303;51.504;6.300;2023-03-14T01:19:07;2.30;;;1.60;;
12476;SDS011;6303;51.504;6.300;2023-03-14T01:21:35;3.38;;;1.70;;
12476;SDS011;6303;51.504;6.300;2023-03-14T01:24:03;1.95;;;1.50;;
12476;SDS011;6303;51.504;6.300;2023-03-14T01:26:32;2.28;;;1.58;;
12476;SDS011;6303;51.504;6.300;2023-03-14T01:29:00;1.60;;;1.50;;
12476;SDS011;6303;51.504;6.300;2023-03-14T01:31:32;1.95;;;1.50;;
12476;SDS011;6303;51.504;6.300;2023-03-14T01:33:59;1.75;;;1.40;;
12476;SDS011;6303;51.504;6.300;2023-03-14T01:36:26;3.60;;;1.60;;
12476;SDS011;6303;51.504;6.300;2023-03-14T01:38:53;1.73;;;1.38;;
12476;SDS011;6303;51.504;6.300;2023-03-14T01:41:23;1.65;;;1.33;;
12476;SDS011;6303;51.504;6.300;2023-03-14T01:43:53;2.90;;;1.50;;
12476;SDS011;6303;51.504;6.300;2023-03-14T01:46:22;2.08;;;1.63;;
12476;SDS011;6303;51.504;6.300;2023-03-14T01:48:58;1.95;;;1.35;;
12476;SDS011;6303;51.504;6.300;2023-03-14T01:51:33;1.65;;;1.27;;
12476;SDS011;6303;51.504;6.300;2023-03-14T01:54:07;1.98;;;1.23;;
12476;SDS011;6303;51.504;6.300;2023-03-14T01:56:38;1.50;;;1.40;;
12476;SDS011;6303;51.504;6.300;2023-03-14T01:59:08;2.13;;;1.40;;
12476;SDS011;6303;51.504;6.300;2023-03-14T02:01:38;2.03;;;1.40;;
12476;SDS011;6303;51.504;6.300;2023-03-14T02:04:11;2.08;;;1.20;;
12476;SDS011;6303;51.504;6.300;2023-03-14T02:06:44;2.05;;;1.30;;
12476;SDS011;6303;51.504;6.300;2023-03-14T02:09:17;1.35;;;1.25;;
12476;SDS011;6303;51.504;6.300;2023-03-14T02:11:46;1.38;;;1.10;;
12476;SDS011;6303;51.504;6.300;2023-03-14T02:14:35;3.33;;;1.50;;
12476;SDS011;6303;51.504;6.300;2023-03-14T02:17:29;1.73;;;1.63;;
12476;SDS011;6303;51.504;6.300;2023-03-14T02:20:25;2.08;;;1.25;;
12476;SDS011;6303;51.504;6.300;2023-03-14T02:22:59;2.30;;;1.48;;
12476;SDS011;6303;51.504;6.300;2023-03-14T02:25:30;1.38;;;1.23;;
12476;SDS011;6303;51.504;6.300;2023-03-14T02:28:08;2.15;;;1.25;;
12476;SDS011;6303;51.504;6.300;2023-03-14T02:30:37;2.15;;;1.30;;
12476;SDS011;6303;51.504;6.300;2023-03-14T02:33:05;1.52;;;1.17;;
12476;SDS011;6303;51.504;6.300;2023-03-14T02:35:35;1.38;;;1.27;;
12476;SDS011;6303;51.504;6.300;2023-03-14T02:38:08;2.30;;;1.38;;
12476;SDS011;6303;51.504;6.300;2023-03-14T02:40:43;1.85;;;1.10;;
12476;SDS011;6303;51.504;6.300;2023-03-14T02:43:12;1.88;;;1.40;;
12476;SDS011;6303;51.504;6.300;2023-03-14T02:45:44;1.33;;;1.13;;
12476;SDS011;6303;51.504;6.300;2023-03-14T02:48:15;1.60;;;1.23;;
12476;SDS011;6303;51.504;6.300;2023-03-14T02:50:45;1.33;;;1.13;;
12476;SDS011;6303;51.504;6.300;2023-03-14T02:53:16;1.40;;;1.10;;
12476;SDS011;6303;51.504;6.300;2023-03-14T02:55:46;1.45;;;1.20;;
12476;SDS011;6303;51.504;6.300;2023-03-14T02:58:18;1.70;;;1.10;;
12476;SDS011;6303;51.504;6.300;2023-03-14T03:00:50;1.52;;;1.20;;
12476;SDS011;6303;51.504;6.300;2023-03-14T03:03:17;1.75;;;1.30;;
12476;SDS011;6303;51.504;6.300;2023-03-14T03:05:47;1.20;;;1.02;;
12476;SDS011;6303;51.504;6.300;2023-03-14T03:08:15;1.63;;;1.27;;
12476;SDS011;6303;51.504;6.300;2023-03-14T03:10:43;1.65;;;1.20;;
12476;SDS011;6303;51.504;6.300;2023-03-14T03:13:10;2.25;;;1.20;;
12476;SDS011;6303;51.504;6.300;2023-03-14T03:15:38;1.88;;;1.30;;
12476;SDS011;6303;51.504;6.300;2023-03-14T03:18:06;1.75;;;1.23;;
12476;SDS011;6303;51.504;6.300;2023-03-14T03:20:33;1.75;;;1.08;;
12476;SDS011;6303;51.504;6.300;2023-03-14T03:23:00;1.25;;;1.00;;
12476;SDS011;6303;51.504;6.300;2023-03-14T03:25:28;1.90;;;1.15;;
12476;SDS011;6303;51.504;6.300;2023-03-14T03:27:56;1.80;;;1.10;;
12476;SDS011;6303;51.504;6.300;2023-03-14T03:30:23;1.17;;;0.90;;
12476;SDS011;6303;51.504;6.300;2023-03-14T03:32:52;1.10;;;1.00;;
12476;SDS011;6303;51.504;6.300;2023-03-14T03:35:19;1.65;;;1.10;;
12476;SDS011;6303;51.504;6.300;2023-03-14T03:37:46;1.85;;;1.08;;
12476;SDS011;6303;51.504;6.300;2023-03-14T03:40:13;3.70;;;1.10;;
12476;SDS011;6303;51.504;6.300;2023-03-14T03:42:40;1.70;;;1.02;;
12476;SDS011;6303;51.504;6.300;2023-03-14T03:45:09;1.05;;;0.88;;
12476;SDS011;6303;51.504;6.300;2023-03-14T03:47:45;1.45;;;1.02;;
12476;SDS011;6303;51.504;6.300;2023-03-14T03:50:14;1.23;;;1.00;;
12476;SDS011;6303;51.504;6.300;2023-03-14T03:52:41;1.10;;;1.00;;
12476;SDS011;6303;51.504;6.300;2023-03-14T03:55:08;2.05;;;1.00;;
12476;SDS011;6303;51.504;6.300;2023-03-14T03:57:35;1.35;;;0.90;;
12476;SDS011;6303;51.504;6.300;2023-03-14T04:00:03;1.23;;;1.10;;
12476;SDS011;6303;51.504;6.300;2023-03-14T04:02:39;1.67;;;1.00;;
12476;SDS011;6303;51.504;6.300;2023-03-14T04:05:09;3.88;;;1.10;;
12476;SDS011;6303;51.504;6.300;2023-03-14T04:07:41;1.67;;;1.10;;
12476;SDS011;6303;51.504;6.300;2023-03-14T04:10:14;0.95;;;0.88;;
12476;SDS011;6303;51.504;6.300;2023-03-14T04:12:48;1.55;;;1.02;;
12476;SDS011;6303;51.504;6.300;2023-03-14T04:15:19;1.17;;;0.98;;
12476;SDS011;6303;51.504;6.300;2023-03-14T04:17:50;1.38;;;1.00;;
12476;SDS011;6303;51.504;6.300;2023-03-14T04:20:18;1.30;;;0.90;;
12476;SDS011;6303;51.504;6.300;2023-03-14T04:22:46;1.67;;;0.95;;
12476;SDS011;6303;51.504;6.300;2023-03-14T04:25:13;1.95;;;1.02;;
12476;SDS011;6303;51.504;6.300;2023-03-14T04:27:46;1.65;;;1.00;;
12476;SDS011;6303;51.504;6.300;2023-03-14T04:30:18;1.48;;;1.10;;
12476;SDS011;6303;51.504;6.300;2023-03-14T04:32:51;1.30;;;0.88;;
12476;SDS011;6303;51.504;6.300;2023-03-14T04:35:21;1.85;;;1.02;;
12476;SDS011;6303;51.504;6.300;2023-03-14T04:37:53;1.23;;;1.00;;
12476;SDS011;6303;51.504;6.300;2023-03-14T04:40:21;1.08;;;0.90;;
12476;SDS011;6303;51.504;6.300;2023-03-14T04:42:52;1.40;;;1.00;;
12476;SDS011;6303;51.504;6.300;2023-03-14T04:45:20;1.00;;;0.90;;
12476;SDS011;6303;51.504;6.300;2023-03-14T04:47:48;1.20;;;1.10;;
12476;SDS011;6303;51.504;6.300;2023-03-14T04:50:18;2.53;;;1.05;;
12476;SDS011;6303;51.504;6.300;2023-03-14T04:52:46;1.08;;;0.98;;
12476;SDS011;6303;51.504;6.300;2023-03-14T04:55:15;1.60;;;1.35;;
12476;SDS011;6303;51.504;6.300;2023-03-14T04:57:42;2.15;;;0.90;;
12476;SDS011;6303;51.504;6.300;2023-03-14T05:00:10;1.00;;;0.80;;
12476;SDS011;6303;51.504;6.300;2023-03-14T05:03:14;1.52;;;1.00;;
12476;SDS011;6303;51.504;6.300;2023-03-14T05:06:19;1.08;;;0.95;;
12476;SDS011;6303;51.504;6.300;2023-03-14T05:09:07;1.58;;;0.90;;
12476;SDS011;6303;51.504;6.300;2023-03-14T05:11:54;1.00;;;0.70;;
12476;SDS011;6303;51.504;6.300;2023-03-14T05:14:30;1.83;;;1.20;;
12476;SDS011;6303;51.504;6.300;2023-03-14T05:17:12;0.93;;;0.73;;
12476;SDS011;6303;51.504;6.300;2023-03-14T05:20:02;1.02;;;0.82;;
12476;SDS011;6303;51.504;6.300;2023-03-14T05:22:49;0.75;;;0.75;;
12476;SDS011;6303;51.504;6.300;2023-03-14T05:25:48;0.75;;;0.70;;
12476;SDS011;6303;51.504;6.300;2023-03-14T05:28:39;1.15;;;0.73;;
12476;SDS011;6303;51.504;6.300;2023-03-14T05:31:27;0.93;;;0.80;;
12476;SDS011;6303;51.504;6.300;2023-03-14T05:34:15;1.15;;;0.85;;
12476;SDS011;6303;51.504;6.300;2023-03-14T05:37:08;0.85;;;0.80;;
12476;SDS011;6303;51.504;6.300;2023-03-14T05:40:07;0.80;;;0.80;;
12476;SDS011;6303;51.504;6.300;2023-03-14T05:42:58;0.70;;;0.70;;
12476;SDS011;6303;51.504;6.300;2023-03-14T05:45:46;0.93;;;0.88;;
12476;SDS011;6303;51.504;6.300;2023-03-14T05:48:35;1.83;;;0.88;;
12476;SDS011;6303;51.504;6.300;2023-03-14T05:51:31;1.00;;;0.82;;
12476;SDS011;6303;51.504;6.300;2023-03-14T05:54:09;1.13;;;0.80;;
12476;SDS011;6303;51.504;6.300;2023-03-14T05:56:55;0.75;;;0.75;;
12476;SDS011;6303;51.504;6.300;2023-03-14T05:59:38;1.17;;;0.70;;
12476;SDS011;6303;51.504;6.300;2023-03-14T06:02:32;0.70;;;0.70;;
12476;SDS011;6303;51.504;6.300;2023-03-14T06:05:07;0.93;;;0.90;;
12476;SDS011;6303;51.504;6.300;2023-03-14T06:07:35;1.45;;;0.80;;
12476;SDS011;6303;51.504;6.300;2023-03-14T06:10:04;1.10;;;0.80;;
12476;SDS011;6303;51.504;6.300;2023-03-14T06:12:33;4.95;;;1.45;;
12476;SDS011;6303;51.504;6.300;2023-03-14T06:15:00;2.83;;;1.30;;
12476;SDS011;6303;51.504;6.300;2023-03-14T06:17:27;2.85;;;1.15;;
12476;SDS011;6303;51.504;6.300;2023-03-14T06:20:03;2.42;;;0.98;;
12476;SDS011;6303;51.504;6.300;2023-03-14T06:22:30;7.00;;;1.70;;
12476;SDS011;6303;51.504;6.300;2023-03-14T06:24:58;5.85;;;1.50;;
12476;SDS011;6303;51.504;6.300;2023-03-14T06:27:25;5.88;;;1.60;;
12476;SDS011;6303;51.504;6.300;2023-03-14T06:29:54;7.55;;;1.40;;
12476;SDS011;6303;51.504;6.300;2023-03-14T06:32:22;5.18;;;1.42;;
12476;SDS011;6303;51.504;6.300;2023-03-14T06:34:52;2.42;;;1.38;;
12476;SDS011;6303;51.504;6.300;2023-03-14T06:37:21;4.28;;;1.42;;
12476;SDS011;6303;51.504;6.300;2023-03-14T06:39:48;4.03;;;1.30;;
12476;SDS011;6303;51.504;6.300;2023-03-14T06:42:29;2.22;;;1.20;;
12476;SDS011;6303;51.504;6.300;2023-03-14T06:44:56;2.90;;;1.20;;
12476;SDS011;6303;51.504;6.300;2023-03-14T06:47:25;1.20;;;1.10;;
12476;SDS011;6303;51.504;6.300;2023-03-14T06:49:52;2.83;;;1.00;;
12476;SDS011;6303;51.504;6.300;2023-03-14T06:52:21;4.00;;;0.88;;
12476;SDS011;6303;51.504;6.300;2023-03-14T06:54:48;1.83;;;1.00;;
12476;SDS011;6303;51.504;6.300;2023-03-14T06:57:17;3.08;;;1.10;;
12476;SDS011;6303;51.504;6.300;2023-03-14T06:59:44;3.30;;;1.10;;
12476;SDS011;6303;51.504;6.300;2023-03-14T07:02:11;2.25;;;1.00;;
12476;SDS011;6303;51.504;6.300;2023-03-14T07:04:40;1.88;;;1.00;;
12476;SDS011;6303;51.504;6.300;2023-03-14T07:07:08;2.90;;;1.08;;
12476;SDS011;6303;51.504;6.300;2023-03-14T07:09:36;1.13;;;1.02;;
12476;SDS011;6303;51.504;6.300;2023-03-14T07:12:04;1.95;;;1.00;;
12476;SDS011;6303;51.504;6.300;2023-03-14T07:14:31;1.15;;;0.88;;
12476;SDS011;6303;51.504;6.300;2023-03-14T07:16:59;0.70;;;0.70;;
12476;SDS011;6303;51.504;6.300;2023-03-14T07:19:26;0.88;;;0.80;;
12476;SDS011;6303;51.504;6.300;2023-03-14T07:21:53;1.25;;;0.82;;
12476;SDS011;6303;51.504;6.300;2023-03-14T07:24:23;1.38;;;0.90;;
12476;SDS011;6303;51.504;6.300;2023-03-14T07:26:52;1.40;;;1.02;;
12476;SDS011;6303;51.504;6.300;2023-03-14T07:29:19;0.85;;;0.75;;
12476;SDS011;6303;51.504;6.300;2023-03-14T07:31:47;0.95;;;0.88;;
12476;SDS011;6303;51.504;6.300;2023-03-14T07:34:17;1.23;;;0.70;;
12476;SDS011;6303;51.504;6.300;2023-03-14T07:36:45;1.05;;;0.70;;
12476;SDS011;6303;51.504;6.300;2023-03-14T07:39:12;1.25;;;0.95;;
12476;SDS011;6303;51.504;6.300;2023-03-14T07:41:50;0.82;;;0.75;;
12476;SDS011;6303;51.504;6.300;2023-03-14T07:44:24;0.73;;;0.70;;
12476;SDS011;6303;51.504;6.300;2023-03-14T07:46:51;0.70;;;0.70;;
12476;SDS011;6303;51.504;6.300;2023-03-14T07:49:18;2.45;;;1.02;;
12476;SDS011;6303;51.504;6.300;2023-03-14T07:51:47;1.17;;;0.80;;
12476;SDS011;6303;51.504;6.300;2023-03-14T07:54:14;1.42;;;0.90;;
12476;SDS011;6303;51.504;6.300;2023-03-14T07:56:41;1.95;;;0.90;;
12476;SDS011;6303;51.504;6.300;2023-03-14T07:59:10;0.77;;;0.65;;
12476;SDS011;6303;51.504;6.300;2023-03-14T08:01:37;0.98;;;0.75;;
12476;SDS011;6303;51.504;6.300;2023-03-14T08:04:04;1.27;;;0.80;;
12476;SDS011;6303;51.504;6.300;2023-03-14T08:06:31;1.15;;;0.90;;
12476;SDS011;6303;51.504;6.300;2023-03-14T08:08:58;1.40;;;0.80;;
12476;SDS011;6303;51.504;6.300;2023-03-14T08:11:25;0.65;;;0.63;;
12476;SDS011;6303;51.504;6.300;2023-03-14T08:13:52;0.70;;;0.70;;
12476;SDS011;6303;51.504;6.300;2023-03-14T08:16:20;1.60;;;0.80;;
12476;SDS011;6303;51.504;6.300;2023-03-14T08:18:48;0.70;;;0.70;;
12476;SDS011;6303;51.504;6.300;2023-03-14T08:21:15;0.93;;;0.52;;
12476;SDS011;6303;51.504;6.300;2023-03-14T08:23:42;0.65;;;0.60;;
12476;SDS011;6303;51.504;6.300;2023-03-14T08:26:09;1.30;;;0.60;;
12476;SDS011;6303;51.504;6.300;2023-03-14T08:28:36;0.70;;;0.70;;
12476;SDS011;6303;51.504;6.300;2023-03-14T08:31:03;1.17;;;0.60;;
12476;SDS011;6303;51.504;6.300;2023-03-14T08:33:31;1.13;;;0.70;;
12476;SDS011;6303;51.504;6.300;2023-03-14T08:35:59;0.52;;;0.50;;
12476;SDS011;6303;51.504;6.300;2023-03-14T08:38:27;0.80;;;0.70;;
12476;SDS011;6303;51.504;6.300;2023-03-14T08:40:55;0.82;;;0.70;;
12476;SDS011;6303;51.504;6.300;2023-03-14T08:43:23;0.65;;;0.65;;
12476;SDS011;6303;51.504;6.300;2023-03-14T08:45:50;0.77;;;0.77;;
12476;SDS011;6303;51.504;6.300;2023-03-14T08:48:17;0.60;;;0.60;;
12476;SDS011;6303;51.504;6.300;2023-03-14T08:50:46;0.65;;;0.60;;
12476;SDS011;6303;51.504;6.300;2023-03-14T08:53:13;1.42;;;0.77;;
12476;SDS011;6303;51.504;6.300;2023-03-14T08:55:40;0.82;;;0.60;;
12476;SDS011;6303;51.504;6.300;2023-03-14T08:58:07;0.70;;;0.70;;
12476;SDS011;6303;51.504;6.300;2023-03-14T09:00:34;0.52;;;0.52;;
12476;SDS011;6303;51.504;6.300;2023-03-14T09:03:01;0.57;;;0.57;;
12476;SDS011;6303;51.504;6.300;2023-03-14T09:05:28;0.60;;;0.60;;
12476;SDS011;6303;51.504;6.300;2023-03-14T09:07:59;1.05;;;0.50;;
12476;SDS011;6303;51.504;6.300;2023-03-14T09:10:27;0.75;;;0.60;;
12476;SDS011;6303;51.504;6.300;2023-03-14T09:12:54;0.50;;;0.50;;
12476;SDS011;6303;51.504;6.300;2023-03-14T09:15:22;0.88;;;0.65;;
12476;SDS011;6303;51.504;6.300;2023-03-14T09:17:49;0.60;;;0.60;;
12476;SDS011;6303;51.504;6.300;2023-03-14T09:20:16;0.95;;;0.70;;
12476;SDS011;6303;51.504;6.300;2023-03-14T09:22:43;0.60;;;0.60;;
12476;SDS011;6303;51.504;6.300;2023-03-14T09:25:12;0.88;;;0.60;;
12476;SDS011;6303;51.504;6.300;2023-03-14T09:27:39;0.60;;;0.50;;
12476;SDS011;6303;51.504;6.300;2023-03-14T09:30:06;0.73;;;0.73;;
12476;SDS011;6303;51.504;6.300;2023-03-14T09:32:34;1.17;;;0.63;;
12476;SDS011;6303;51.504;6.300;2023-03-14T09:35:01;0.73;;;0.73;;
12476;SDS011;6303;51.504;6.300;2023-03-14T09:37:29;0.75;;;0.70;;
12476;SDS011;6303;51.504;6.300;2023-03-14T09:39:55;0.60;;;0.60;;
12476;SDS011;6303;51.504;6.300;2023-03-14T09:42:25;0.57;;;0.57;;
12476;SDS011;6303;51.504;6.300;2023-03-14T09:44:54;0.52;;;0.52;;
12476;SDS011;6303;51.504;6.300;2023-03-14T09:47:25;0.60;;;0.60;;
12476;SDS011;6303;51.504;6.300;2023-03-14T09:49:53;0.70;;;0.70;;
12476;SDS011;6303;51.504;6.300;2023-03-14T09:52:21;0.65;;;0.60;;
12476;SDS011;6303;51.504;6.300;2023-03-14T09:54:51;0.50;;;0.50;;
12476;SDS011;6303;51.504;6.300;2023-03-14T09:57:21;0.77;;;0.73;;
12476;SDS011;6303;51.504;6.300;2023-03-14T09:59:53;0.50;;;0.50;;
12476;SDS011;6303;51.504;6.300;2023-03-14T10:02:24;0.73;;;0.55;;
12476;SDS011;6303;51.504;6.300;2023-03-14T10:04:54;0.60;;;0.60;;
12476;SDS011;6303;51.504;6.300;2023-03-14T10:07:27;0.60;;;0.60;;
12476;SDS011;6303;51.504;6.300;2023-03-14T10:09:57;0.63;;;0.60;;
12476;SDS011;6303;51.504;6.300;2023-03-14T10:12:31;0.55;;;0.55;;
12476;SDS011;6303;51.504;6.300;2023-03-14T10:15:01;0.63;;;0.60;;
12476;SDS011;6303;51.504;6.300;2023-03-14T10:17:37;1.40;;;0.70;;
12476;SDS011;6303;51.504;6.300;2023-03-14T10:20:06;0.65;;;0.65;;
12476;SDS011;6303;51.504;6.300;2023-03-14T10:22:35;0.70;;;0.47;;
12476;SDS011;6303;51.504;6.300;2023-03-14T10:25:04;0.80;;;0.65;;
12476;SDS011;6303;51.504;6.300;2023-03-14T10:27:36;0.70;;;0.60;;
12476;SDS011;6303;51.504;6.300;2023-03-14T10:30:05;0.68;;;0.50;;
12476;SDS011;6303;51.504;6.300;2023-03-14T10:32:40;1.20;;;0.60;;
12476;SDS011;6303;51.504;6.300;2023-03-14T10:35:19;0.63;;;0.63;;
12476;SDS011;6303;51.504;6.300;2023-03-14T10:37:48;1.48;;;0.73;;
12476;SDS011;6303;51.504;6.300;2023-03-14T10:40:20;1.27;;;0.70;;
12476;SDS011;6303;51.504;6.300;2023-03-14T10:42:53;0.68;;;0.60;;
12476;SDS011;6303;51.504;6.300;2023-03-14T10:45:34;0.85;;;0.75;;
12476;SDS011;6303;51.504;6.300;2023-03-14T10:48:15;0.85;;;0.60;;
12476;SDS011;6303;51.504;6.300;2023-03-14T10:50:50;0.90;;;0.60;;
12476;SDS011;6303;51.504;6.300;2023-03-14T10:53:21;1.02;;;0.60;;
12476;SDS011;6303;51.504;6.300;2023-03-14T10:55:48;0.70;;;0.70;;
12476;SDS011;6303;51.504;6.300;2023-03-14T10:58:21;1.00;;;0.70;;
12476;SDS011;6303;51.504;6.300;2023-03-14T11:00:51;1.00;;;0.70;;
12476;SDS011;6303;51.504;6.300;2023-03-14T11:03:26;0.63;;;0.60;;
12476;SDS011;6303;51.504;6.300;2023-03-14T11:05:57;1.27;;;0.60;;
12476;SDS011;6303;51.504;6.300;2023-03-14T11:08:29;1.15;;;0.70;;
12476;SDS011;6303;51.504;6.300;2023-03-14T11:11:03;1.05;;;0.80;;
12476;SDS011;6303;51.504;6.300;2023-03-14T11:13:39;0.40;;;0.40;;
12476;SDS011;6303;51.504;6.300;2023-03-14T11:16:14;0.75;;;0.60;;
12476;SDS011;6303;51.504;6.300;2023-03-14T11:18:51;1.27;;;0.70;;
12476;SDS011;6303;51.504;6.300;2023-03-14T11:21:35;0.57;;;0.57;;
12476;SDS011;6303;51.504;6.300;2023-03-14T11:24:29;1.33;;;0.70;;
12476;SDS011;6303;51.504;6.300;2023-03-14T11:27:17;0.82;;;0.77;;
12476;SDS011;6303;51.504;6.300;2023-03-14T11:29:51;1.30;;;0.70;;
12476;SDS011;6303;51.504;6.300;2023-03-14T11:32:24;1.25;;;0.70;;
12476;SDS011;6303;51.504;6.300;2023-03-14T11:35:03;0.93;;;0.60;;
12476;SDS011;6303;51.504;6.300;2023-03-14T11:37:34;0.90;;;0.70;;
12476;SDS011;6303;51.504;6.300;2023-03-14T11:40:06;0.93;;;0.60;;
12476;SDS011;6303;51.504;6.300;2023-03-14T11:42:40;1.67;;;0.70;;
12476;SDS011;6303;51.504;6.300;2023-03-14T11:45:15;0.63;;;0.55;;
12476;SDS011;6303;51.504;6.300;2023-03-14T11:47:45;1.27;;;0.60;;
12476;SDS011;6303;51.504;6.300;2023-03-14T11:50:18;0.90;;;0.70;;
12476;SDS011;6303;51.504;6.300;2023-03-14T11:52:50;1.10;;;0.57;;
12476;SDS011;6303;51.504;6.300;2023-03-14T11:55:21;0.50;;;0.50;;
12476;SDS011;6303;51.504;6.300;2023-03-14T11:57:53;1.13;;;0.60;;
12476;SDS011;6303;51.504;6.300;2023-03-14T12:00:26;1.42;;;0.70;;
12476;SDS011;6303;51.504;6.300;2023-03-14T12:02:55;1.58;;;0.85;;
12476;SDS011;6303;51.504;6.300;2023-03-14T12:11:10;0.98;;;0.80;;
12476;SDS011;6303;51.504;6.300;2023-03-14T12:13:52;1.00;;;0.80;;
12476;SDS011;6303;51.504;6.300;2023-03-14T12:16:34;2.30;;;1.10;;
12476;SDS011;6303;51.504;6.300;2023-03-14T12:22:08;1.42;;;1.02;;
12476;SDS011;6303;51.504;6.300;2023-03-14T12:24:47;1.08;;;0.80;;
12476;SDS011;6303;51.504;6.300;2023-03-14T12:30:23;1.63;;;0.80;;
12476;SDS011;6303;51.504;6.300;2023-03-14T12:36:11;2.08;;;1.10;;
12476;SDS011;6303;51.504;6.300;2023-03-14T12:38:53;1.80;;;0.90;;
12476;SDS011;6303;51.504;6.300;2023-03-14T12:41:35;2.80;;;1.10;;
12476;SDS011;6303;51.504;6.300;2023-03-14T12:47:26;2.17;;;0.90;;
12476;SDS011;6303;51.504;6.300;2023-03-14T12:50:13;2.67;;;1.00;;
12476;SDS011;6303;51.504;6.300;2023-03-14T12:52:47;2.75;;;1.10;;
12476;SDS011;6303;51.504;6.300;2023-03-14T12:55:49;2.35;;;1.15;;
12476;SDS011;6303;51.504;6.300;2023-03-14T12:58:25;3.15;;;1.40;;
12476;SDS011;6303;51.504;6.300;2023-03-14T13:00:58;3.13;;;1.38;;
12476;SDS011;6303;51.504;6.300;2023-03-14T13:03:36;2.20;;;1.30;;
12476;SDS011;6303;51.504;6.300;2023-03-14T13:06:08;2.92;;;1.30;;
12476;SDS011;6303;51.504;6.300;2023-03-14T13:08:38;3.35;;;1.15;;
12476;SDS011;6303;51.504;6.300;2023-03-14T13:11:08;3.38;;;1.25;;
12476;SDS011;6303;51.504;6.300;2023-03-14T13:13:40;3.20;;;1.45;;
12476;SDS011;6303;51.504;6.300;2023-03-14T13:16:12;3.05;;;1.13;;
12476;SDS011;6303;51.504;6.300;2023-03-14T13:18:43;3.55;;;1.40;;
12476;SDS011;6303;51.504;6.300;2023-03-14T13:21:12;3.58;;;1.35;;
12476;SDS011;6303;51.504;6.300;2023-03-14T13:23:55;2.33;;;1.40;;
12476;SDS011;6303;51.504;6.300;2023-03-14T13:26:24;5.05;;;1.55;;
12476;SDS011;6303;51.504;6.300;2023-03-14T13:28:59;3.53;;;1.48;;
12476;SDS011;6303;51.504;6.300;2023-03-14T13:31:26;5.45;;;1.50;;
12476;SDS011;6303;51.504;6.300;2023-03-14T13:33:58;4.13;;;1.50;;
12476;SDS011;6303;51.504;6.300;2023-03-14T13:36:26;3.03;;;1.50;;
12476;SDS011;6303;51.504;6.300;2023-03-14T13:38:58;4.63;;;1.55;;
12476;SDS011;6303;51.504;6.300;2023-03-14T13:41:26;3.55;;;1.50;;
12476;SDS011;6303;51.504;6.300;2023-03-14T13:43:56;4.97;;;1.67;;
12476;SDS011;6303;51.504;6.300;2023-03-14T13:46:28;4.10;;;1.65;;
12476;SDS011;6303;51.504;6.300;2023-03-14T13:48:56;3.05;;;1.55;;
12476;SDS011;6303;51.504;6.300;2023-03-14T13:51:27;4.38;;;1.58;;
12476;SDS011;6303;51.504;6.300;2023-03-14T13:53:58;5.25;;;1.50;;
12476;SDS011;6303;51.504;6.300;2023-03-14T13:56:27;4.10;;;1.58;;
12476;SDS011;6303;51.504;6.300;2023-03-14T13:58:55;3.20;;;1.55;;
12476;SDS011;6303;51.504;6.300;2023-03-14T14:01:23;4.38;;;1.75;;
12476;SDS011;6303;51.504;6.300;2023-03-14T14:03:53;4.18;;;1.40;;
12476;SDS011;6303;51.504;6.300;2023-03-14T14:06:26;3.25;;;1.40;;
12476;SDS011;6303;51.504;6.300;2023-03-14T14:08:58;3.17;;;1.50;;
12476;SDS011;6303;51.504;6.300;2023-03-14T14:11:33;3.53;;;1.67;;
12476;SDS011;6303;51.504;6.300;2023-03-14T14:14:09;4.07;;;1.65;;
12476;SDS011;6303;51.504;6.300;2023-03-14T14:16:38;2.03;;;1.13;;
12476;SDS011;6303;51.504;6.300;2023-03-14T14:19:06;4.18;;;1.67;;
12476;SDS011;6303;51.504;6.300;2023-03-14T14:21:33;2.70;;;1.20;;
12476;SDS011;6303;51.504;6.300;2023-03-14T14:24:01;2.55;;;1.45;;
12476;SDS011;6303;51.504;6.300;2023-03-14T14:26:30;2.75;;;1.20;;
12476;SDS011;6303;51.504;6.300;2023-03-14T14:28:58;2.85;;;1.40;;
12476;SDS011;6303;51.504;6.300;2023-03-14T14:31:27;3.40;;;1.30;;
12476;SDS011;6303;51.504;6.300;2023-03-14T14:33:55;3.58;;;1.60;;
12476;SDS011;6303;51.504;6.300;2023-03-14T14:36:24;4.60;;;1.90;;
12476;SDS011;6303;51.504;6.300;2023-03-14T14:38:57;1.90;;;1.27;;
12476;SDS011;6303;51.504;6.300;2023-03-14T14:41:28;3.72;;;1.60;;
12476;SDS011;6303;51.504;6.300;2023-03-14T14:43:56;3.30;;;1.40;;
12476;SDS011;6303;51.504;6.300;2023-03-14T14:46:26;1.75;;;1.20;;
12476;SDS011;6303;51.504;6.300;2023-03-14T14:48:56;3.00;;;1.40;;
12476;SDS011;6303;51.504;6.300;2023-03-14T14:51:25;5.07;;;1.55;;
12476;SDS011;6303;51.504;6.300;2023-03-14T14:54:04;3.80;;;1.52;;
12476;SDS011;6303;51.504;6.300;2023-03-14T14:56:38;4.70;;;1.40;;
12476;SDS011;6303;51.504;6.300;2023-03-14T14:59:07;3.13;;;1.40;;
12476;SDS011;6303;51.504;6.300;2023-03-14T15:01:47;2.90;;;1.25;;
12476;SDS011;6303;51.504;6.300;2023-03-14T15:04:16;3.75;;;1.30;;
12476;SDS011;6303;51.504;6.300;2023-03-14T15:06:43;4.20;;;1.75;;
12476;SDS011;6303;51.504;6.300;2023-03-14T15:09:13;4.72;;;1.60;;
12476;SDS011;6303;51.504;6.300;2023-03-14T15:11:43;3.72;;;1.52;;
12476;SDS011;6303;51.504;6.300;2023-03-14T15:14:10;4.43;;;1.42;;
12476;SDS011;6303;51.504;6.300;2023-03-14T15:16:37;4.75;;;1.80;;
12476;SDS011;6303;51.504;6.300;2023-03-14T15:19:10;3.00;;;1.20;;
12476;SDS011;6303;51.504;6.300;2023-03-14T15:21:41;3.05;;;1.20;;
12476;SDS011;6303;51.504;6.300;2023-03-14T15:24:08;2.78;;;1.42;;
12476;SDS011;6303;51.504;6.300;2023-03-14T15:26:36;4.40;;;1.65;;
12476;SDS011;6303;51.504;6.300;2023-03-14T15:29:04;5.07;;;1.65;;
12476;SDS011;6303;51.504;6.300;2023-03-14T15:31:33;3.05;;;1.40;;
12476;SDS011;6303;51.504;6.300;2023-03-14T15:34:01;3.92;;;1.27;;
12476;SDS011;6303;51.504;6.300;2023-03-14T15:36:29;2.97;;;1.30;;
12476;SDS011;6303;51.504;6.300;2023-03-14T15:38:57;3.83;;;1.40;;
12476;SDS011;6303;51.504;6.300;2023-03-14T15:41:26;2.97;;;1.40;;
12476;SDS011;6303;51.504;6.300;2023-03-14T15:43:54;1.67;;;1.13;;